Time;durP1;ratioP1;P1;durP2;ratioP2;P2;SDS_P1;SDS_P2;PMS_P1;PMS_P2;Temp;Humidity;BMP_temperature;BMP_pressure;BME280_temperature;BME280_humidity;BME280_pressure;Samples;Min_cycle;Max_cycle;Signal;HPM_P1;HPM_P2
2022/02/07 00:01:00;;;;;;;10.02;5.40;;;;;;;;;;2112884;28;20539;-44
2022/02/07 00:02:04;;;;;;;10.85;7.15;;;;;;;;;;2104649;28;20698;-43
2022/02/07 00:03:15;;;;;;;12.30;6.10;;;;;;;;;;2112039;28;20114;-43
2022/02/07 00:04:22;;;;;;;11.00;7.38;;;;;;;;;;2113709;28;20519;-42
2022/02/07 00:05:26;;;;;;;9.70;7.45;;;;;;;;;;2110564;28;20513;-44
2022/02/07 00:06:27;;;;;;;10.07;6.00;;;;;;;;;;2114641;28;20071;-43
2022/02/07 00:07:28;;;;;;;11.15;6.60;;;;;;;;;;2115766;28;20047;-43
2022/02/07 00:08:30;;;;;;;9.20;6.38;;;;;;;;;;2111682;28;20662;-45
2022/02/07 00:09:33;;;;;;;11.23;6.63;;;;;;;;;;2115242;28;20071;-44
2022/02/07 00:10:35;;;;;;;10.93;7.15;;;;;;;;;;2114746;28;20125;-56
2022/02/07 00:11:35;;;;;;;12.32;6.80;;;;;;;;;;2113538;28;20134;-56
2022/02/07 00:12:37;;;;;;;11.55;5.97;;;;;;;;;;2115256;28;20623;-56
2022/02/07 00:13:38;;;;;;;9.13;6.03;;;;;;;;;;2112919;28;20079;-56
2022/02/07 00:14:39;;;;;;;10.70;6.75;;;;;;;;;;2114423;28;20071;-56
2022/02/07 00:15:40;;;;;;;10.98;6.57;;;;;;;;;;2115162;28;20055;-56
2022/02/07 00:16:42;;;;;;;10.88;6.53;;;;;;;;;;2111978;28;20043;-56
2022/02/07 00:17:43;;;;;;;10.60;6.85;;;;;;;;;;2115406;28;20085;-56
2022/02/07 00:18:44;;;;;;;13.55;7.15;;;;;;;;;;2114239;28;20462;-56
2022/02/07 00:19:46;;;;;;;10.85;6.18;;;;;;;;;;2110280;28;20557;-56
2022/02/07 00:20:48;;;;;;;12.25;6.97;;;;;;;;;;2115012;28;20497;-56
2022/02/07 00:21:49;;;;;;;;;;;;;;;;;;2114144;28;20138;-56
2022/02/07 00:22:51;;;;;;;14.48;6.47;;;;;;;;;;2107455;28;19920;-56
2022/02/07 00:23:52;;;;;;;11.98;7.38;;;;;;;;;;2106701;28;20076;-57
2022/02/07 00:24:53;;;;;;;10.95;6.43;;;;;;;;;;2109237;28;20097;-56
2022/02/07 00:25:54;;;;;;;8.60;5.65;;;;;;;;;;2114090;28;20039;-43
2022/02/07 00:26:55;;;;;;;9.27;6.55;;;;;;;;;;2115067;28;20508;-44
2022/02/07 00:27:56;;;;;;;10.85;7.07;;;;;;;;;;2112011;28;20067;-45
2022/02/07 00:28:57;;;;;;;10.73;6.95;;;;;;;;;;2115134;28;20048;-43
2022/02/07 00:29:58;;;;;;;10.25;5.68;;;;;;;;;;2115103;28;20044;-44
2022/02/07 00:31:00;;;;;;;10.73;7.38;;;;;;;;;;2109676;28;20062;-44
2022/02/07 00:32:01;;;;;;;;;;;;;;;;;;2107252;28;20040;-43
2022/02/07 00:33:02;;;;;;;9.15;5.22;;;;;;;;;;2108814;28;19920;-56
2022/02/07 00:34:03;;;;;;;11.02;6.07;;;;;;;;;;2111639;28;20044;-56
2022/02/07 00:35:06;;;;;;;10.80;7.13;;;;;;;;;;2115400;28;20100;-56
2022/02/07 00:36:09;;;;;;;11.27;6.93;;;;;;;;;;2113198;28;20071;-56
2022/02/07 00:37:10;;;;;;;11.05;7.13;;;;;;;;;;2113009;28;20126;-56
2022/02/07 00:38:16;;;;;;;10.33;7.13;;;;;;;;;;2115156;28;20056;-56
2022/02/07 00:39:24;;;;;;;10.00;6.82;;;;;;;;;;2109249;28;20276;-56
2022/02/07 00:40:44;;;;;;;8.32;5.55;;;;;;;;;;2115291;28;20116;-43
2022/02/07 00:41:49;;;;;;;10.65;6.80;;;;;;;;;;2113531;28;20043;-43
2022/02/07 00:42:52;;;;;;;9.32;6.55;;;;;;;;;;2107107;28;20090;-43
2022/02/07 00:43:58;;;;;;;13.05;7.55;;;;;;;;;;2115063;28;20086;-44
2022/02/07 00:45:02;;;;;;;11.68;7.20;;;;;;;;;;2110551;28;20040;-43
2022/02/07 00:46:07;;;;;;;10.82;6.75;;;;;;;;;;2114943;28;20319;-44
2022/02/07 00:47:09;;;;;;;11.02;6.82;;;;;;;;;;2115566;28;20075;-43
2022/02/07 00:48:10;;;;;;;;;;;;;;;;;;2111527;28;20048;-43
2022/02/07 00:49:11;;;;;;;8.82;4.95;;;;;;;;;;2115040;28;20044;-43
2022/02/07 00:50:12;;;;;;;8.75;5.15;;;;;;;;;;2111161;28;20112;-45
2022/02/07 00:51:14;;;;;;;9.57;6.85;;;;;;;;;;2112867;28;20275;-44
2022/02/07 00:52:15;;;;;;;10.00;6.30;;;;;;;;;;2115332;28;20132;-43
2022/02/07 00:53:16;;;;;;;13.13;6.43;;;;;;;;;;2110883;28;20493;-42
2022/02/07 00:54:17;;;;;;;9.77;6.28;;;;;;;;;;2114015;28;20124;-44
2022/02/07 00:55:18;;;;;;;9.15;5.57;;;;;;;;;;2115368;28;20047;-43
2022/02/07 00:56:19;;;;;;;9.63;6.80;;;;;;;;;;2112819;28;20040;-44
2022/02/07 00:57:20;;;;;;;9.20;6.07;;;;;;;;;;2115031;28;20124;-44
2022/02/07 00:58:22;;;;;;;7.85;5.88;;;;;;;;;;2115038;28;20096;-45
2022/02/07 00:59:23;;;;;;;9.05;6.28;;;;;;;;;;2109579;28;20048;-44
2022/02/07 01:00:24;;;;;;;9.23;5.28;;;;;;;;;;2115034;28;20158;-56
2022/02/07 01:01:27;;;;;;;9.60;5.93;;;;;;;;;;2110021;28;20072;-56
2022/02/07 01:02:28;;;;;;;10.40;6.05;;;;;;;;;;2111897;28;20375;-56
2022/02/07 01:03:29;;;;;;;10.43;6.93;;;;;;;;;;2115149;28;20052;-43
2022/02/07 01:04:30;;;;;;;8.68;5.63;;;;;;;;;;2113042;28;20081;-43
2022/02/07 01:05:31;;;;;;;8.38;5.85;;;;;;;;;;2113773;28;20134;-45
2022/02/07 01:06:33;;;;;;;7.55;5.00;;;;;;;;;;2114782;28;20059;-43
2022/02/07 01:07:34;;;;;;;8.50;5.88;;;;;;;;;;2111658;28;20565;-43
2022/02/07 01:08:40;;;;;;;8.85;5.97;;;;;;;;;;2114917;28;20045;-44
2022/02/07 01:09:45;;;;;;;8.68;5.97;;;;;;;;;;2114849;28;20138;-45
2022/02/07 01:10:54;;;;;;;9.82;5.20;;;;;;;;;;2111011;28;20192;-43
2022/02/07 01:12:07;;;;;;;9.23;5.70;;;;;;;;;;2114865;28;20580;-43
2022/02/07 01:13:15;;;;;;;9.45;5.38;;;;;;;;;;2112677;28;20127;-43
2022/02/07 01:14:28;;;;;;;7.30;5.70;;;;;;;;;;2106512;28;20056;-43
2022/02/07 01:15:37;;;;;;;8.10;4.68;;;;;;;;;;2106889;28;20131;-43
2022/02/07 01:17:02;;;;;;;7.68;5.43;;;;;;;;;;2111881;28;20516;-43
2022/02/07 01:20:00;;;;;;;7.38;4.45;;;;;;;;;;2108200;28;20052;-57
2022/02/07 01:22:46;;;;;;;7.35;4.60;;;;;;;;;;2071865;28;20080;-57
2022/02/07 01:45:59;;;;;;;9.52;6.70;;;;;;;;;;2106270;28;20044;-56
2022/02/07 01:47:02;;;;;;;11.30;6.25;;;;;;;;;;2114557;28;20510;-44
2022/02/07 01:48:17;;;;;;;8.90;5.97;;;;;;;;;;2113008;28;20071;-43
2022/02/07 01:51:03;;;;;;;9.05;6.00;;;;;;;;;;2095950;28;20131;-43
2022/02/07 01:52:15;;;;;;;9.00;5.82;;;;;;;;;;2106131;28;20502;-44
2022/02/07 01:53:27;;;;;;;8.55;5.53;;;;;;;;;;2109742;28;20524;-43
2022/02/07 01:54:36;;;;;;;9.13;6.10;;;;;;;;;;2114652;28;20082;-43
2022/02/07 01:55:42;;;;;;;11.48;5.60;;;;;;;;;;2112939;28;20484;-57
2022/02/07 01:56:43;;;;;;;10.82;6.00;;;;;;;;;;2106079;28;20083;-57
2022/02/07 01:57:46;;;;;;;9.30;5.47;;;;;;;;;;2106374;28;20050;-57
2022/02/07 01:58:47;;;;;;;7.70;5.70;;;;;;;;;;2110838;28;20366;-57
2022/02/07 01:59:49;;;;;;;7.85;6.40;;;;;;;;;;2114422;28;20082;-57
2022/02/07 02:00:50;;;;;;;7.82;5.68;;;;;;;;;;2113624;28;20614;-57
2022/02/07 02:01:51;;;;;;;9.20;6.07;;;;;;;;;;2110325;28;20058;-57
2022/02/07 02:02:52;;;;;;;7.80;4.90;;;;;;;;;;2114453;28;20177;-57
2022/02/07 02:03:53;;;;;;;8.55;6.07;;;;;;;;;;2113307;28;20047;-57
2022/02/07 02:04:55;;;;;;;9.65;6.20;;;;;;;;;;2112554;28;20130;-57
2022/02/07 02:05:56;;;;;;;7.75;6.13;;;;;;;;;;2114400;28;20404;-57
2022/02/07 02:06:57;;;;;;;9.70;6.30;;;;;;;;;;2112409;28;20036;-57
2022/02/07 02:07:58;;;;;;;8.52;6.47;;;;;;;;;;2113663;28;20135;-57
2022/02/07 02:09:00;;;;;;;9.23;6.27;;;;;;;;;;2114460;28;20499;-57
2022/02/07 02:10:02;;;;;;;10.40;6.35;;;;;;;;;;2108711;28;20079;-57
2022/02/07 02:11:03;;;;;;;9.88;6.75;;;;;;;;;;2114323;28;20086;-57
2022/02/07 02:12:06;;;;;;;8.55;5.93;;;;;;;;;;2114474;28;20059;-43
2022/02/07 02:13:10;;;;;;;10.63;6.63;;;;;;;;;;2112383;28;20404;-44
2022/02/07 02:14:22;;;;;;;9.57;6.63;;;;;;;;;;2114507;28;20122;-44
2022/02/07 02:15:34;;;;;;;8.02;5.20;;;;;;;;;;2113022;28;20559;-43
2022/02/07 02:16:42;;;;;;;12.07;7.70;;;;;;;;;;2106065;28;20402;-44
2022/02/07 02:33:03;;;;;;;11.85;6.50;;;;;;;;;;2111362;28;20536;-57
2022/02/07 02:35:55;;;;;;;9.75;6.35;;;;;;;;;;2110344;28;20520;-57
2022/02/07 02:37:10;;;;;;;11.52;8.00;;;;;;;;;;2114212;28;20047;-56
2022/02/07 02:38:19;;;;;;;10.50;6.78;;;;;;;;;;2111612;28;20142;-56
2022/02/07 02:45:56;;;;;;;10.07;7.20;;;;;;;;;;2105730;28;20165;-44
2022/02/07 02:46:57;;;;;;;10.63;7.97;;;;;;;;;;2110484;28;20079;-45
2022/02/07 02:48:02;;;;;;;12.80;6.53;;;;;;;;;;2114539;28;20071;-56
2022/02/07 02:49:03;;;;;;;12.93;7.20;;;;;;;;;;2114577;28;20108;-56
2022/02/07 02:50:09;;;;;;;14.23;7.03;;;;;;;;;;2110842;28;20173;-56
2022/02/07 02:51:10;;;;;;;11.32;7.95;;;;;;;;;;2114181;28;20079;-56
2022/02/07 02:52:11;;;;;;;10.73;8.00;;;;;;;;;;2111150;28;20103;-56
2022/02/07 02:53:13;;;;;;;12.15;7.55;;;;;;;;;;2112929;28;20143;-56
2022/02/07 02:54:14;;;;;;;12.75;8.85;;;;;;;;;;2114106;28;20075;-56
2022/02/07 02:55:15;;;;;;;10.10;6.27;;;;;;;;;;2111137;28;20127;-56
2022/02/07 02:56:16;;;;;;;12.38;8.07;;;;;;;;;;2114015;28;20131;-56
2022/02/07 02:57:17;;;;;;;10.70;7.57;;;;;;;;;;2114148;28;20507;-56
2022/02/07 02:58:20;;;;;;;11.13;8.13;;;;;;;;;;2107773;28;20048;-56
2022/02/07 02:59:21;;;;;;;12.98;7.95;;;;;;;;;;2106070;28;20106;-44
2022/02/07 03:00:22;;;;;;;13.17;8.00;;;;;;;;;;2106516;28;20486;-43
2022/02/07 03:01:23;;;;;;;10.05;8.07;;;;;;;;;;2106325;28;20139;-47
2022/02/07 03:02:24;;;;;;;9.43;6.68;;;;;;;;;;2105882;28;20394;-57
2022/02/07 03:03:26;;;;;;;11.30;8.32;;;;;;;;;;2106232;28;20070;-56
2022/02/07 03:04:26;;;;;;;10.38;7.03;;;;;;;;;;2106839;28;20127;-44
2022/02/07 03:05:28;;;;;;;11.60;7.00;;;;;;;;;;2105600;28;20409;-44
2022/02/07 03:06:29;;;;;;;11.57;7.50;;;;;;;;;;2108263;28;20051;-57
2022/02/07 03:07:31;;;;;;;10.43;7.47;;;;;;;;;;2113763;28;20044;-57
2022/02/07 03:08:31;;;;;;;;;;;;;;;;;;2114695;28;20181;-57
2022/02/07 03:09:33;;;;;;;12.50;7.20;;;;;;;;;;2110839;28;19928;-57
2022/02/07 03:10:44;;;;;;;11.57;8.07;;;;;;;;;;2114095;28;20082;-57
2022/02/07 03:11:45;;;;;;;11.15;6.93;;;;;;;;;;2112860;28;20121;-57
2022/02/07 03:12:59;;;;;;;11.73;8.68;;;;;;;;;;2111148;28;20134;-44
2022/02/07 03:14:03;;;;;;;12.45;7.60;;;;;;;;;;2114129;28;20397;-44
2022/02/07 03:16:36;;;;;;;14.13;9.52;;;;;;;;;;2111051;28;20379;-44
2022/02/07 03:16:38;;;;;;;16.05;9.38;;;;;;;;;;2114207;28;20047;-57
2022/02/07 03:17:39;;;;;;;15.43;10.57;;;;;;;;;;2112282;28;20137;-57
2022/02/07 03:18:40;;;;;;;13.65;8.43;;;;;;;;;;2112673;28;20131;-57
2022/02/07 03:19:41;;;;;;;13.68;9.68;;;;;;;;;;2114194;28;20101;-57
2022/02/07 03:20:42;;;;;;;12.85;10.10;;;;;;;;;;2109811;28;20502;-57
2022/02/07 03:21:43;;;;;;;12.50;8.02;;;;;;;;;;2113698;28;20043;-57
2022/02/07 03:22:45;;;;;;;14.52;8.13;;;;;;;;;;2113967;28;20055;-57
2022/02/07 03:23:46;;;;;;;12.32;8.68;;;;;;;;;;2110940;28;20063;-57
2022/02/07 03:24:47;;;;;;;11.50;8.45;;;;;;;;;;2114023;28;20075;-57
2022/02/07 03:25:48;;;;;;;12.95;8.15;;;;;;;;;;2114125;28;20039;-57
2022/02/07 03:26:50;;;;;;;13.27;9.05;;;;;;;;;;2111156;28;20050;-57
2022/02/07 03:27:51;;;;;;;14.55;7.50;;;;;;;;;;2113961;28;20046;-57
2022/02/07 03:28:52;;;;;;;12.05;8.35;;;;;;;;;;2113202;28;20076;-57
2022/02/07 03:29:53;;;;;;;9.63;6.63;;;;;;;;;;2113197;28;20522;-57
2022/02/07 03:30:55;;;;;;;13.27;9.20;;;;;;;;;;2114172;28;20131;-44
2022/02/07 03:31:56;;;;;;;9.98;7.90;;;;;;;;;;2109881;28;20337;-47
2022/02/07 03:32:57;;;;;;;15.27;7.53;;;;;;;;;;2114078;28;20071;-43
2022/02/07 03:33:58;;;;;;;13.18;8.68;;;;;;;;;;2113864;28;20593;-57
2022/02/07 03:34:59;;;;;;;11.68;7.65;;;;;;;;;;2110993;28;20138;-57
2022/02/07 03:36:00;;;;;;;12.90;8.55;;;;;;;;;;2114017;28;20412;-57
2022/02/07 03:37:01;;;;;;;13.32;9.35;;;;;;;;;;2113806;28;20502;-57
2022/02/07 03:38:04;;;;;;;12.18;7.07;;;;;;;;;;2111104;28;20108;-57
2022/02/07 03:39:05;;;;;;;13.00;8.65;;;;;;;;;;2113829;28;20361;-57
2022/02/07 03:40:08;;;;;;;12.52;9.45;;;;;;;;;;2112363;27;20055;-57
2022/02/07 03:41:09;;;;;;;12.57;9.25;;;;;;;;;;2113898;28;20083;-57
2022/02/07 03:42:10;;;;;;;15.48;10.20;;;;;;;;;;2110018;28;20397;-57
2022/02/07 03:43:11;;;;;;;11.30;7.32;;;;;;;;;;2111701;28;20087;-45
2022/02/07 03:44:12;;;;;;;13.18;10.10;;;;;;;;;;2115419;28;20420;-44
2022/02/07 03:45:13;;;;;;;12.32;9.07;;;;;;;;;;2115692;28;20047;-46
2022/02/07 03:46:18;;;;;;;15.75;9.57;;;;;;;;;;2112423;28;20044;-44
2022/02/07 03:47:19;;;;;;;15.13;11.43;;;;;;;;;;2115295;28;20075;-57
2022/02/07 03:48:20;;;;;;;16.45;12.18;;;;;;;;;;2112923;28;20071;-57
2022/02/07 03:49:21;;;;;;;13.20;8.50;;;;;;;;;;2108198;28;20693;-46
2022/02/07 03:50:22;;;;;;;14.98;11.15;;;;;;;;;;2106897;28;20040;-45
2022/02/07 03:51:23;;;;;;;15.93;10.68;;;;;;;;;;2107390;28;20127;-44
2022/02/07 03:52:26;;;;;;;14.23;8.03;;;;;;;;;;2115421;28;20051;-44
2022/02/07 03:53:28;;;;;;;13.32;8.80;;;;;;;;;;2115396;28;20098;-44
2022/02/07 03:54:29;;;;;;;12.30;8.95;;;;;;;;;;2108972;28;20131;-44
2022/02/07 03:55:30;;;;;;;11.18;7.38;;;;;;;;;;2106831;28;20050;-44
2022/02/07 03:56:31;;;;;;;13.48;9.27;;;;;;;;;;2109190;28;20151;-57
2022/02/07 03:57:32;;;;;;;13.10;7.57;;;;;;;;;;2111875;28;20473;-57
2022/02/07 03:58:33;;;;;;;15.73;8.38;;;;;;;;;;2115524;28;20048;-45
2022/02/07 03:59:35;;;;;;;11.18;8.07;;;;;;;;;;2113775;28;20126;-44
2022/02/07 04:00:36;;;;;;;12.25;8.75;;;;;;;;;;2113835;28;20074;-44
2022/02/07 04:01:38;;;;;;;14.45;9.00;;;;;;;;;;2108140;28;20051;-44
2022/02/07 04:02:43;;;;;;;13.48;8.98;;;;;;;;;;2109725;28;20497;-43
2022/02/07 04:03:44;;;;;;;13.15;8.55;;;;;;;;;;2107014;28;20497;-57
2022/02/07 04:04:51;;;;;;;13.50;7.38;;;;;;;;;;2107146;28;20044;-57
2022/02/07 04:05:56;;;;;;;14.18;9.00;;;;;;;;;;2110282;28;20208;-44
2022/02/07 04:06:57;;;;;;;13.65;9.13;;;;;;;;;;2115303;28;20075;-44
2022/02/07 04:07:58;;;;;;;14.47;9.13;;;;;;;;;;2114815;28;20040;-43
2022/02/07 04:09:05;;;;;;;13.07;9.43;;;;;;;;;;2111723;28;20071;-44
2022/02/07 04:10:07;;;;;;;10.57;9.43;;;;;;;;;;2115213;28;20442;-44
2022/02/07 04:11:15;;;;;;;14.65;11.15;;;;;;;;;;2112701;28;20592;-43
2022/02/07 04:12:20;;;;;;;15.40;11.70;;;;;;;;;;2106742;28;20141;-44
2022/02/07 04:13:28;;;;;;;16.40;11.80;;;;;;;;;;2106556;28;20477;-44
2022/02/07 04:14:29;;;;;;;16.88;11.63;;;;;;;;;;2107524;28;20040;-43
2022/02/07 04:15:30;;;;;;;13.65;8.73;;;;;;;;;;2106817;28;20489;-44
2022/02/07 04:16:37;;;;;;;13.48;9.45;;;;;;;;;;2107455;28;20122;-46
2022/02/07 04:17:43;;;;;;;15.65;12.18;;;;;;;;;;2113147;28;20500;-57
2022/02/07 04:19:03;;;;;;;11.82;9.23;;;;;;;;;;2115264;28;20185;-58
2022/02/07 04:20:04;;;;;;;13.18;7.45;;;;;;;;;;2112175;28;20076;-57
2022/02/07 04:21:05;;;;;;;13.15;8.85;;;;;;;;;;2115176;28;20131;-57
2022/02/07 04:22:08;;;;;;;11.25;7.13;;;;;;;;;;2114736;28;20130;-57
2022/02/07 04:23:09;;;;;;;11.68;9.15;;;;;;;;;;2107699;28;20398;-57
2022/02/07 04:24:11;;;;;;;20.58;6.97;;;;;;;;;;2106621;28;20452;-57
2022/02/07 04:25:13;;;;;;;12.48;7.97;;;;;;;;;;2108319;28;20127;-57
2022/02/07 04:26:13;;;;;;;11.80;7.95;;;;;;;;;;2113854;28;20134;-44
2022/02/07 04:27:14;;;;;;;11.23;8.88;;;;;;;;;;2115077;28;20165;-45
2022/02/07 04:28:16;;;;;;;13.32;7.65;;;;;;;;;;2112214;28;20127;-44
2022/02/07 04:29:17;;;;;;;14.32;9.30;;;;;;;;;;2115191;28;20075;-45
2022/02/07 04:30:18;;;;;;;12.63;9.13;;;;;;;;;;2115153;28;20075;-44
2022/02/07 04:31:19;;;;;;;13.35;8.65;;;;;;;;;;2109560;28;20478;-46
2022/02/07 04:32:22;;;;;;;14.38;9.80;;;;;;;;;;2106687;28;20055;-47
2022/02/07 04:33:23;;;;;;;13.97;8.67;;;;;;;;;;2106122;28;20040;-45
2022/02/07 04:34:24;;;;;;;14.23;7.82;;;;;;;;;;2111823;28;20078;-46
2022/02/07 04:35:25;;;;;;;11.90;8.90;;;;;;;;;;2115067;28;20096;-47
2022/02/07 04:36:27;;;;;;;14.52;9.98;;;;;;;;;;2111813;28;20127;-43
2022/02/07 04:37:27;;;;;;;13.27;9.02;;;;;;;;;;2113706;28;20076;-45
2022/02/07 04:38:28;;;;;;;13.27;9.33;;;;;;;;;;2109039;28;20055;-45
2022/02/07 04:39:30;;;;;;;14.40;9.75;;;;;;;;;;2106862;28;20040;-44
2022/02/07 04:40:31;;;;;;;11.43;7.65;;;;;;;;;;2114868;28;20139;-45
2022/02/07 04:41:32;;;;;;;11.15;8.35;;;;;;;;;;2114812;28;20456;-44
2022/02/07 04:42:33;;;;;;;10.82;8.10;;;;;;;;;;2112022;28;20085;-44
2022/02/07 04:43:35;;;;;;;12.25;7.47;;;;;;;;;;2115009;28;20071;-46
2022/02/07 04:44:43;;;;;;;13.90;8.57;;;;;;;;;;2115513;28;20044;-45
2022/02/07 04:45:55;;;;;;;13.18;8.18;;;;;;;;;;2107228;28;20138;-44
2022/02/07 04:47:06;;;;;;;11.95;6.28;;;;;;;;;;2106938;28;20068;-44
2022/02/07 04:48:39;;;;;;;13.35;8.23;;;;;;;;;;2109962;28;20573;-44
2022/02/07 04:50:02;;;;;;;12.32;6.75;;;;;;;;;;2115072;28;20457;-45
2022/02/07 04:51:37;;;;;;;15.27;7.57;;;;;;;;;;2110104;28;20094;-44
2022/02/07 04:54:10;;;;;;;12.10;7.30;;;;;;;;;;2100196;28;20024;-57
2022/02/07 04:55:16;;;;;;;10.77;7.93;;;;;;;;;;2114907;28;20091;-57
2022/02/07 04:57:00;;;;;;;12.20;7.60;;;;;;;;;;2110363;28;20127;-57
2022/02/07 04:57:51;;;;;;;10.65;8.48;;;;;;;;;;2115121;28;20564;-57
2022/02/07 04:59:01;;;;;;;10.25;7.03;;;;;;;;;;2115135;28;20088;-58
2022/02/07 05:00:09;;;;;;;12.55;8.98;;;;;;;;;;2107205;28;20395;-58
2022/02/07 05:01:14;;;;;;;10.93;6.93;;;;;;;;;;2106537;28;20127;-57
2022/02/07 05:02:22;;;;;;;12.48;7.45;;;;;;;;;;2109219;28;20428;-57
2022/02/07 05:03:28;;;;;;;10.90;7.60;;;;;;;;;;2106656;28;20511;-44
2022/02/07 05:04:34;;;;;;;12.27;8.02;;;;;;;;;;2107264;28;20458;-44
2022/02/07 05:13:44;;;;;;;11.20;7.85;;;;;;;;;;2111786;28;20036;-44
2022/02/07 05:14:49;;;;;;;12.73;9.20;;;;;;;;;;2114851;28;20048;-45
2022/02/07 05:15:51;;;;;;;12.80;8.50;;;;;;;;;;2115304;28;20519;-44
2022/02/07 05:16:54;;;;;;;13.85;9.65;;;;;;;;;;2111666;28;20043;-54
2022/02/07 05:17:55;;;;;;;12.80;7.80;;;;;;;;;;2114719;28;20075;-57
2022/02/07 05:19:01;;;;;;;13.77;10.00;;;;;;;;;;2113058;28;20507;-57
2022/02/07 05:20:02;;;;;;;11.25;7.50;;;;;;;;;;2113094;28;20071;-57
2022/02/07 05:21:03;;;;;;;11.88;7.93;;;;;;;;;;2114631;28;20069;-56
2022/02/07 05:22:04;;;;;;;12.77;7.45;;;;;;;;;;2111555;28;20386;-56
2022/02/07 05:23:05;;;;;;;14.40;9.30;;;;;;;;;;2114909;28;20062;-56
2022/02/07 05:24:07;;;;;;;10.82;7.22;;;;;;;;;;2114747;28;20058;-56
2022/02/07 05:25:08;;;;;;;12.85;9.82;;;;;;;;;;2109194;28;20163;-46
2022/02/07 05:26:10;;;;;;;13.98;7.25;;;;;;;;;;2114782;28;20086;-45
2022/02/07 05:27:11;;;;;;;12.05;8.57;;;;;;;;;;2113928;28;20068;-44
2022/02/07 05:28:12;;;;;;;11.93;7.57;;;;;;;;;;2107270;28;20051;-45
2022/02/07 05:29:13;;;;;;;11.82;8.02;;;;;;;;;;2106555;28;20048;-45
2022/02/07 05:30:14;;;;;;;14.55;9.65;;;;;;;;;;2108238;28;20484;-45
2022/02/07 05:31:18;;;;;;;13.68;8.27;;;;;;;;;;2113050;28;20086;-44
2022/02/07 05:32:19;;;;;;;22.85;13.77;;;;;;;;;;2115051;28;20105;-45
2022/02/07 05:33:20;;;;;;;16.13;9.77;;;;;;;;;;2112140;28;20501;-47
2022/02/07 05:34:21;;;;;;;20.70;13.77;;;;;;;;;;2114403;28;20154;-45
2022/02/07 05:35:23;;;;;;;18.65;11.90;;;;;;;;;;2114804;28;20382;-48
2022/02/07 05:36:24;;;;;;;14.05;10.00;;;;;;;;;;2108929;28;20193;-45
2022/02/07 05:37:25;;;;;;;14.02;7.72;;;;;;;;;;2114834;28;20481;-54
2022/02/07 05:38:26;;;;;;;16.90;11.02;;;;;;;;;;2113452;28;20044;-53
2022/02/07 05:39:33;;;;;;;13.68;7.97;;;;;;;;;;2106749;28;20078;-53
2022/02/07 05:40:40;;;;;;;15.20;11.73;;;;;;;;;;2106476;28;20076;-54
2022/02/07 05:41:42;;;;;;;18.30;11.05;;;;;;;;;;2106432;28;20534;-44
2022/02/07 05:42:43;;;;;;;;;;;;;;;;;;2113819;28;20130;-44
2022/02/07 05:43:46;;;;;;;16.40;9.15;;;;;;;;;;2114942;28;19924;-52
2022/02/07 05:44:48;;;;;;;18.23;13.02;;;;;;;;;;2111430;28;20058;-53
2022/02/07 05:45:49;;;;;;;21.17;11.43;;;;;;;;;;2114556;28;20085;-52
2022/02/07 05:46:50;;;;;;;19.55;13.63;;;;;;;;;;2114555;28;20125;-50
2022/02/07 05:47:52;;;;;;;17.35;9.18;;;;;;;;;;2106786;28;20082;-50
2022/02/07 05:48:53;;;;;;;15.77;10.35;;;;;;;;;;2106443;28;20089;-44
2022/02/07 05:49:54;;;;;;;12.60;7.38;;;;;;;;;;2108184;28;20135;-44
2022/02/07 05:50:55;;;;;;;13.35;8.90;;;;;;;;;;2106727;28;20044;-44
2022/02/07 05:51:56;;;;;;;15.50;9.15;;;;;;;;;;2106329;28;20499;-52
2022/02/07 05:52:58;;;;;;;12.10;7.70;;;;;;;;;;2108045;28;20039;-53
2022/02/07 05:54:05;;;;;;;15.90;10.27;;;;;;;;;;2113246;28;20043;-52
2022/02/07 05:55:06;;;;;;;16.20;10.27;;;;;;;;;;2114649;28;20089;-52
2022/02/07 05:56:08;;;;;;;14.60;7.65;;;;;;;;;;2111278;28;20452;-50
2022/02/07 05:57:09;;;;;;;15.63;9.32;;;;;;;;;;2114642;28;20131;-50
2022/02/07 05:58:11;;;;;;;13.52;8.48;;;;;;;;;;2114480;28;20519;-51
2022/02/07 05:59:12;;;;;;;14.63;10.30;;;;;;;;;;2109649;28;20123;-50
2022/02/07 06:00:14;;;;;;;15.07;10.32;;;;;;;;;;2114462;28;20577;-53
2022/02/07 06:01:15;;;;;;;14.35;7.82;;;;;;;;;;2109980;28;20076;-52
2022/02/07 06:02:16;;;;;;;19.38;9.93;;;;;;;;;;2111701;28;20077;-52
2022/02/07 06:03:17;;;;;;;16.35;11.65;;;;;;;;;;2114338;28;20054;-50
2022/02/07 06:04:18;;;;;;;13.63;8.05;;;;;;;;;;2112833;28;20365;-49
2022/02/07 06:05:19;;;;;;;15.88;11.20;;;;;;;;;;2113046;28;20078;-52
2022/02/07 06:06:20;;;;;;;15.00;9.13;;;;;;;;;;2114338;28;20140;-50
2022/02/07 06:07:21;;;;;;;13.98;9.45;;;;;;;;;;2111835;28;20173;-51
2022/02/07 06:08:23;;;;;;;12.98;7.32;;;;;;;;;;2105953;28;20125;-50
2022/02/07 06:09:24;;;;;;;16.90;10.63;;;;;;;;;;2105917;28;20062;-53
2022/02/07 06:10:25;;;;;;;16.83;10.95;;;;;;;;;;2109961;28;20060;-52
2022/02/07 06:11:27;;;;;;;15.95;10.90;;;;;;;;;;2105915;28;20156;-50
2022/02/07 06:12:32;;;;;;;15.80;8.52;;;;;;;;;;2105705;28;20044;-53
2022/02/07 06:13:35;;;;;;;15.88;9.77;;;;;;;;;;2106691;28;20554;-56
2022/02/07 06:14:36;;;;;;;18.17;12.05;;;;;;;;;;2105948;28;20080;-59
2022/02/07 06:15:37;;;;;;;18.08;11.40;;;;;;;;;;2107925;28;20035;-59
2022/02/07 06:16:39;;;;;;;16.33;9.27;;;;;;;;;;2106534;28;20079;-59
2022/02/07 06:17:40;;;;;;;17.20;11.52;;;;;;;;;;2106271;28;20083;-45
2022/02/07 06:18:42;;;;;;;15.07;10.57;;;;;;;;;;2106104;28;20055;-45
2022/02/07 06:19:43;;;;;;;16.25;10.73;;;;;;;;;;2106185;28;20048;-47
2022/02/07 06:20:44;;;;;;;13.93;9.30;;;;;;;;;;2109635;28;20051;-59
2022/02/07 06:21:45;;;;;;;17.77;11.35;;;;;;;;;;2110223;28;20084;-59
2022/02/07 06:22:47;;;;;;;17.27;11.65;;;;;;;;;;2114618;28;20168;-59
2022/02/07 06:23:48;;;;;;;19.13;11.18;;;;;;;;;;2114694;28;20130;-59
2022/02/07 06:24:49;;;;;;;16.83;9.65;;;;;;;;;;2110950;28;20043;-58
2022/02/07 06:25:50;;;;;;;17.77;11.60;;;;;;;;;;2114102;28;20386;-59
2022/02/07 06:26:52;;;;;;;17.38;11.90;;;;;;;;;;2114456;28;20043;-59
2022/02/07 06:27:54;;;;;;;17.30;10.02;;;;;;;;;;2112675;28;20128;-45
2022/02/07 06:28:55;;;;;;;16.85;11.10;;;;;;;;;;2114461;28;20079;-45
2022/02/07 06:29:56;;;;;;;17.52;9.43;;;;;;;;;;2112079;28;20082;-48
2022/02/07 06:30:57;;;;;;;18.33;10.00;;;;;;;;;;2107801;28;20055;-45
2022/02/07 06:31:59;;;;;;;15.45;9.68;;;;;;;;;;2105930;28;20075;-45
2022/02/07 06:33:00;;;;;;;14.00;10.02;;;;;;;;;;2111281;28;20046;-45
2022/02/07 06:34:01;;;;;;;13.85;8.90;;;;;;;;;;2114451;28;20110;-44
2022/02/07 06:35:02;;;;;;;13.63;8.80;;;;;;;;;;2112475;28;20719;-48
2022/02/07 06:36:04;;;;;;;16.83;9.80;;;;;;;;;;2106687;28;20510;-45
2022/02/07 06:37:05;;;;;;;12.65;10.05;;;;;;;;;;2105823;28;20063;-45
2022/02/07 06:38:06;;;;;;;13.50;8.13;;;;;;;;;;2108653;28;20075;-45
2022/02/07 06:39:07;;;;;;;15.65;10.55;;;;;;;;;;2106692;28;20040;-48
2022/02/07 06:40:09;;;;;;;17.92;10.05;;;;;;;;;;2105891;28;20058;-45
2022/02/07 06:41:10;;;;;;;26.55;15.68;;;;;;;;;;2108904;28;20109;-44
2022/02/07 06:42:11;;;;;;;16.33;9.70;;;;;;;;;;2105776;28;20070;-45
2022/02/07 06:43:13;;;;;;;15.15;11.02;;;;;;;;;;2105739;28;20139;-46
2022/02/07 06:44:15;;;;;;;17.25;10.13;;;;;;;;;;2109898;28;20044;-45
2022/02/07 06:45:17;;;;;;;18.15;10.40;;;;;;;;;;2114030;28;20246;-45
2022/02/07 06:46:18;;;;;;;17.73;10.57;;;;;;;;;;2111680;28;20078;-44
2022/02/07 06:47:19;;;;;;;14.93;10.23;;;;;;;;;;2111258;28;20137;-45
2022/02/07 06:48:20;;;;;;;13.10;7.78;;;;;;;;;;2114214;28;20293;-44
2022/02/07 06:49:21;;;;;;;15.80;10.18;;;;;;;;;;2113727;28;20051;-47
2022/02/07 06:50:23;;;;;;;13.52;10.02;;;;;;;;;;2112256;28;20044;-57
2022/02/07 06:51:25;;;;;;;13.07;9.68;;;;;;;;;;2114201;28;20047;-57
2022/02/07 06:52:26;;;;;;;13.10;8.20;;;;;;;;;;2112320;28;20130;-57
2022/02/07 06:53:27;;;;;;;20.92;8.57;;;;;;;;;;2114505;28;20412;-56
2022/02/07 06:54:28;;;;;;;17.88;9.45;;;;;;;;;;2114795;28;20500;-56
2022/02/07 06:55:30;;;;;;;14.73;10.23;;;;;;;;;;2107939;28;20044;-56
2022/02/07 06:56:31;;;;;;;13.73;8.38;;;;;;;;;;2105933;28;20066;-57
2022/02/07 06:57:32;;;;;;;13.80;8.13;;;;;;;;;;2106361;28;20044;-58
2022/02/07 06:58:34;;;;;;;15.15;10.27;;;;;;;;;;2112618;28;20071;-57
2022/02/07 06:59:40;;;;;;;16.55;9.55;;;;;;;;;;2114152;28;20513;-57
2022/02/07 07:00:42;;;;;;;16.05;10.10;;;;;;;;;;2110902;28;20055;-57
2022/02/07 07:01:44;;;;;;;;;;;;;;;;;;2106603;28;20040;-57
2022/02/07 07:02:48;;;;;;;16.52;8.13;;;;;;;;;;2105687;28;20297;-57
2022/02/07 07:03:51;;;;;;;14.00;9.63;;;;;;;;;;2104996;28;20047;-58
2022/02/07 07:04:53;;;;;;;13.70;7.68;;;;;;;;;;2105687;28;20130;-58
2022/02/07 07:05:55;;;;;;;15.90;9.48;;;;;;;;;;2105420;28;20044;-58
2022/02/07 07:06:56;;;;;;;14.45;8.13;;;;;;;;;;2112847;28;20039;-59
2022/02/07 07:07:57;;;;;;;20.17;11.23;;;;;;;;;;2114110;28;20126;-58
2022/02/07 07:08:58;;;;;;;;;;;;;;;;;;2112850;28;20102;-45
2022/02/07 07:09:59;;;;;;;19.73;9.60;;;;;;;;;;2114227;28;19919;-58
2022/02/07 07:11:01;;;;;;;18.40;12.40;;;;;;;;;;2113867;28;20044;-58
2022/02/07 07:12:04;;;;;;;14.35;8.90;;;;;;;;;;2111092;28;20093;-45
2022/02/07 07:13:10;;;;;;;16.40;11.93;;;;;;;;;;2113986;28;20123;-45
2022/02/07 07:14:17;;;;;;;16.92;11.35;;;;;;;;;;2113392;28;20097;-47